sensor_id;sensor_type;location;lat;lon;timestamp;temperature;humidity
56861;DHT22;42744;51.094;3.490;2023-03-13T00:01:13;10.60;99.90
56861;DHT22;42744;51.094;3.490;2023-03-13T00:03:40;10.70;99.90
56861;DHT22;42744;51.094;3.490;2023-03-13T00:06:06;10.70;99.90
56861;DHT22;42744;51.094;3.490;2023-03-13T00:08:32;10.70;99.90
56861;DHT22;42744;51.094;3.490;2023-03-13T00:11:02;10.80;99.90
56861;DHT22;42744;51.094;3.490;2023-03-13T00:13:28;10.80;99.90
56861;DHT22;42744;51.094;3.490;2023-03-13T00:16:22;10.80;99.90
56861;DHT22;42744;51.094;3.490;2023-03-13T00:18:52;10.80;99.90
56861;DHT22;42744;51.094;3.490;2023-03-13T00:21:21;10.90;99.90
56861;DHT22;42744;51.094;3.490;2023-03-13T00:23:47;10.90;99.90
56861;DHT22;42744;51.094;3.490;2023-03-13T00:26:19;11.00;99.90
56861;DHT22;42744;51.094;3.490;2023-03-13T00:28:47;11.00;99.90
56861;DHT22;42744;51.094;3.490;2023-03-13T00:31:16;11.00;99.90
56861;DHT22;42744;51.094;3.490;2023-03-13T00:33:45;11.00;99.90
56861;DHT22;42744;51.094;3.490;2023-03-13T00:36:17;11.10;99.90
56861;DHT22;42744;51.094;3.490;2023-03-13T00:38:43;11.20;99.90
56861;DHT22;42744;51.094;3.490;2023-03-13T00:41:21;11.20;99.90
56861;DHT22;42744;51.094;3.490;2023-03-13T00:43:47;11.20;99.90
56861;DHT22;42744;51.094;3.490;2023-03-13T00:46:15;11.30;99.90
56861;DHT22;42744;51.094;3.490;2023-03-13T00:48:42;11.30;99.90
56861;DHT22;42744;51.094;3.490;2023-03-13T00:51:09;11.30;99.90
56861;DHT22;42744;51.094;3.490;2023-03-13T00:53:35;11.40;99.90
56861;DHT22;42744;51.094;3.490;2023-03-13T00:58:29;11.50;99.90
56861;DHT22;42744;51.094;3.490;2023-03-13T01:00:55;11.50;99.90
56861;DHT22;42744;51.094;3.490;2023-03-13T01:03:23;11.50;99.90
56861;DHT22;42744;51.094;3.490;2023-03-13T01:06:00;11.50;99.90
56861;DHT22;42744;51.094;3.490;2023-03-13T01:08:27;11.50;99.90
56861;DHT22;42744;51.094;3.490;2023-03-13T01:11:11;11.50;99.90
56861;DHT22;42744;51.094;3.490;2023-03-13T01:13:38;11.50;99.90
56861;DHT22;42744;51.094;3.490;2023-03-13T01:16:18;11.50;99.90
56861;DHT22;42744;51.094;3.490;2023-03-13T01:18:48;11.50;99.90
56861;DHT22;42744;51.094;3.490;2023-03-13T01:21:15;11.60;99.90
56861;DHT22;42744;51.094;3.490;2023-03-13T01:23:43;11.60;99.90
56861;DHT22;42744;51.094;3.490;2023-03-13T01:26:10;11.60;99.90
56861;DHT22;42744;51.094;3.490;2023-03-13T01:28:37;11.70;99.90
56861;DHT22;42744;51.094;3.490;2023-03-13T01:31:15;11.70;99.90
56861;DHT22;42744;51.094;3.490;2023-03-13T01:33:44;11.70;99.90
56861;DHT22;42744;51.094;3.490;2023-03-13T01:36:11;11.70;99.90
56861;DHT22;42744;51.094;3.490;2023-03-13T01:38:38;11.80;99.90
56861;DHT22;42744;51.094;3.490;2023-03-13T01:41:07;11.80;99.90
56861;DHT22;42744;51.094;3.490;2023-03-13T01:43:35;11.80;99.90
56861;DHT22;42744;51.094;3.490;2023-03-13T01:48:58;11.80;99.90
56861;DHT22;42744;51.094;3.490;2023-03-13T01:54:26;11.90;99.90
56861;DHT22;42744;51.094;3.490;2023-03-13T01:57:01;12.00;99.90
56861;DHT22;42744;51.094;3.490;2023-03-13T01:59:33;11.90;99.90
56861;DHT22;42744;51.094;3.490;2023-03-13T02:02:02;12.00;99.90
56861;DHT22;42744;51.094;3.490;2023-03-13T02:04:38;12.00;99.90
56861;DHT22;42744;51.094;3.490;2023-03-13T02:07:10;12.00;99.90
56861;DHT22;42744;51.094;3.490;2023-03-13T02:09:41;12.00;99.90
56861;DHT22;42744;51.094;3.490;2023-03-13T02:12:14;12.00;99.90
56861;DHT22;42744;51.094;3.490;2023-03-13T02:14:44;12.00;99.90
56861;DHT22;42744;51.094;3.490;2023-03-13T02:17:12;12.10;99.90
56861;DHT22;42744;51.094;3.490;2023-03-13T02:19:49;12.10;99.90
56861;DHT22;42744;51.094;3.490;2023-03-13T02:27:29;12.20;99.90
56861;DHT22;42744;51.094;3.490;2023-03-13T02:29:57;12.20;99.90
56861;DHT22;42744;51.094;3.490;2023-03-13T02:32:24;12.20;99.90
56861;DHT22;42744;51.094;3.490;2023-03-13T02:34:55;12.20;99.90
56861;DHT22;42744;51.094;3.490;2023-03-13T02:37:24;12.20;99.90
56861;DHT22;42744;51.094;3.490;2023-03-13T02:39:52;12.30;99.90
56861;DHT22;42744;51.094;3.490;2023-03-13T02:42:21;12.20;99.90
56861;DHT22;42744;51.094;3.490;2023-03-13T02:44:48;12.30;99.90
56861;DHT22;42744;51.094;3.490;2023-03-13T02:47:20;12.30;99.90
56861;DHT22;42744;51.094;3.490;2023-03-13T02:49:48;12.30;99.90
56861;DHT22;42744;51.094;3.490;2023-03-13T02:52:35;12.40;99.90
56861;DHT22;42744;51.094;3.490;2023-03-13T02:55:08;12.40;99.90
56861;DHT22;42744;51.094;3.490;2023-03-13T02:57:35;12.40;99.90
56861;DHT22;42744;51.094;3.490;2023-03-13T03:00:02;12.40;99.90
56861;DHT22;42744;51.094;3.490;2023-03-13T03:02:32;12.40;99.90
56861;DHT22;42744;51.094;3.490;2023-03-13T03:04:58;12.40;99.90
56861;DHT22;42744;51.094;3.490;2023-03-13T03:07:24;12.40;99.90
56861;DHT22;42744;51.094;3.490;2023-03-13T03:09:51;12.50;99.90
56861;DHT22;42744;51.094;3.490;2023-03-13T03:12:17;12.50;99.90
56861;DHT22;42744;51.094;3.490;2023-03-13T03:14:43;12.50;99.90
56861;DHT22;42744;51.094;3.490;2023-03-13T03:17:09;12.60;99.90
56861;DHT22;42744;51.094;3.490;2023-03-13T03:19:35;12.60;99.90
56861;DHT22;42744;51.094;3.490;2023-03-13T03:22:01;12.60;99.90
56861;DHT22;42744;51.094;3.490;2023-03-13T03:24:28;12.60;99.90
56861;DHT22;42744;51.094;3.490;2023-03-13T03:26:54;12.60;99.90
56861;DHT22;42744;51.094;3.490;2023-03-13T03:29:20;12.60;99.90
56861;DHT22;42744;51.094;3.490;2023-03-13T03:31:47;12.60;99.90
56861;DHT22;42744;51.094;3.490;2023-03-13T03:34:13;12.70;99.90
56861;DHT22;42744;51.094;3.490;2023-03-13T03:36:39;12.60;99.90
56861;DHT22;42744;51.094;3.490;2023-03-13T03:39:05;12.70;99.90
56861;DHT22;42744;51.094;3.490;2023-03-13T03:41:31;12.70;99.90
56861;DHT22;42744;51.094;3.490;2023-03-13T03:43:57;12.70;99.90
56861;DHT22;42744;51.094;3.490;2023-03-13T03:46:24;12.70;99.90
56861;DHT22;42744;51.094;3.490;2023-03-13T03:48:50;12.70;99.90
56861;DHT22;42744;51.094;3.490;2023-03-13T03:51:16;12.70;99.90
56861;DHT22;42744;51.094;3.490;2023-03-13T03:53:42;12.70;99.90
56861;DHT22;42744;51.094;3.490;2023-03-13T03:56:08;12.70;99.90
56861;DHT22;42744;51.094;3.490;2023-03-13T03:58:36;12.70;99.90
56861;DHT22;42744;51.094;3.490;2023-03-13T04:01:02;12.70;99.90
56861;DHT22;42744;51.094;3.490;2023-03-13T04:03:29;12.70;99.90
56861;DHT22;42744;51.094;3.490;2023-03-13T04:05:55;12.80;99.90
56861;DHT22;42744;51.094;3.490;2023-03-13T04:08:22;12.80;99.90
56861;DHT22;42744;51.094;3.490;2023-03-13T04:10:48;12.80;99.90
56861;DHT22;42744;51.094;3.490;2023-03-13T04:13:15;12.80;99.90
56861;DHT22;42744;51.094;3.490;2023-03-13T04:15:41;12.90;99.90
56861;DHT22;42744;51.094;3.490;2023-03-13T04:18:08;12.80;99.90
56861;DHT22;42744;51.094;3.490;2023-03-13T04:20:35;12.90;99.90
56861;DHT22;42744;51.094;3.490;2023-03-13T04:23:02;12.80;99.90
56861;DHT22;42744;51.094;3.490;2023-03-13T04:25:28;12.80;99.90
56861;DHT22;42744;51.094;3.490;2023-03-13T04:27:54;12.80;99.90
56861;DHT22;42744;51.094;3.490;2023-03-13T04:30:21;12.80;99.90
56861;DHT22;42744;51.094;3.490;2023-03-13T04:32:49;12.80;99.90
56861;DHT22;42744;51.094;3.490;2023-03-13T04:35:16;12.80;99.90
56861;DHT22;42744;51.094;3.490;2023-03-13T04:37:42;12.80;99.90
56861;DHT22;42744;51.094;3.490;2023-03-13T04:40:09;12.80;99.90
56861;DHT22;42744;51.094;3.490;2023-03-13T04:42:37;12.80;99.90
56861;DHT22;42744;51.094;3.490;2023-03-13T04:45:15;12.80;99.90
56861;DHT22;42744;51.094;3.490;2023-03-13T04:47:41;12.80;99.90
56861;DHT22;42744;51.094;3.490;2023-03-13T04:50:08;12.80;99.90
56861;DHT22;42744;51.094;3.490;2023-03-13T04:52:34;12.80;99.90
56861;DHT22;42744;51.094;3.490;2023-03-13T04:55:01;12.80;99.90
56861;DHT22;42744;51.094;3.490;2023-03-13T04:57:27;12.80;99.90
56861;DHT22;42744;51.094;3.490;2023-03-13T04:59:53;12.80;99.90
56861;DHT22;42744;51.094;3.490;2023-03-13T05:02:20;12.80;99.90
56861;DHT22;42744;51.094;3.490;2023-03-13T05:04:46;12.80;99.90
56861;DHT22;42744;51.094;3.490;2023-03-13T05:07:13;12.80;99.90
56861;DHT22;42744;51.094;3.490;2023-03-13T05:09:39;12.80;99.90
56861;DHT22;42744;51.094;3.490;2023-03-13T05:12:07;12.80;99.90
56861;DHT22;42744;51.094;3.490;2023-03-13T05:14:37;12.80;99.90
56861;DHT22;42744;51.094;3.490;2023-03-13T05:17:04;12.90;99.90
56861;DHT22;42744;51.094;3.490;2023-03-13T05:19:31;12.90;99.90
56861;DHT22;42744;51.094;3.490;2023-03-13T05:21:58;12.80;99.90
56861;DHT22;42744;51.094;3.490;2023-03-13T05:24:24;12.90;99.90
56861;DHT22;42744;51.094;3.490;2023-03-13T05:26:50;12.80;99.90
56861;DHT22;42744;51.094;3.490;2023-03-13T05:29:17;12.90;99.90
56861;DHT22;42744;51.094;3.490;2023-03-13T05:31:43;12.80;99.90
56861;DHT22;42744;51.094;3.490;2023-03-13T05:34:09;12.90;99.90
56861;DHT22;42744;51.094;3.490;2023-03-13T05:36:35;12.80;99.90
56861;DHT22;42744;51.094;3.490;2023-03-13T05:39:02;12.90;99.90
56861;DHT22;42744;51.094;3.490;2023-03-13T05:41:28;12.90;99.90
56861;DHT22;42744;51.094;3.490;2023-03-13T05:43:54;12.90;99.90
56861;DHT22;42744;51.094;3.490;2023-03-13T05:46:21;12.90;99.90
56861;DHT22;42744;51.094;3.490;2023-03-13T05:48:47;12.90;99.90
56861;DHT22;42744;51.094;3.490;2023-03-13T05:51:13;12.90;99.90
56861;DHT22;42744;51.094;3.490;2023-03-13T05:53:39;13.00;99.90
56861;DHT22;42744;51.094;3.490;2023-03-13T05:56:06;13.00;99.90
56861;DHT22;42744;51.094;3.490;2023-03-13T05:58:33;13.00;99.90
56861;DHT22;42744;51.094;3.490;2023-03-13T06:01:07;13.00;99.90
56861;DHT22;42744;51.094;3.490;2023-03-13T06:03:34;12.90;99.90
56861;DHT22;42744;51.094;3.490;2023-03-13T06:06:00;12.90;99.90
56861;DHT22;42744;51.094;3.490;2023-03-13T06:08:28;12.90;99.90
56861;DHT22;42744;51.094;3.490;2023-03-13T06:10:58;12.80;99.90
56861;DHT22;42744;51.094;3.490;2023-03-13T06:13:25;12.80;99.90
56861;DHT22;42744;51.094;3.490;2023-03-13T06:15:56;12.70;99.90
56861;DHT22;42744;51.094;3.490;2023-03-13T06:18:25;12.70;99.90
56861;DHT22;42744;51.094;3.490;2023-03-13T06:21:01;12.70;99.90
56861;DHT22;42744;51.094;3.490;2023-03-13T06:23:28;12.80;99.90
56861;DHT22;42744;51.094;3.490;2023-03-13T06:25:54;12.80;99.90
56861;DHT22;42744;51.094;3.490;2023-03-13T06:28:20;12.70;99.90
56861;DHT22;42744;51.094;3.490;2023-03-13T06:30:47;12.70;99.90
56861;DHT22;42744;51.094;3.490;2023-03-13T06:33:13;12.80;99.90
56861;DHT22;42744;51.094;3.490;2023-03-13T06:35:40;12.70;99.90
56861;DHT22;42744;51.094;3.490;2023-03-13T06:38:06;12.70;99.90
56861;DHT22;42744;51.094;3.490;2023-03-13T06:40:32;12.70;99.90
56861;DHT22;42744;51.094;3.490;2023-03-13T06:42:58;12.70;99.90
56861;DHT22;42744;51.094;3.490;2023-03-13T06:45:24;12.70;99.90
56861;DHT22;42744;51.094;3.490;2023-03-13T06:47:50;12.70;99.90
56861;DHT22;42744;51.094;3.490;2023-03-13T06:50:17;12.80;99.90
56861;DHT22;42744;51.094;3.490;2023-03-13T06:52:44;12.70;99.90
56861;DHT22;42744;51.094;3.490;2023-03-13T06:55:11;12.70;99.90
56861;DHT22;42744;51.094;3.490;2023-03-13T06:57:37;12.70;99.90
56861;DHT22;42744;51.094;3.490;2023-03-13T07:00:03;12.70;99.90
56861;DHT22;42744;51.094;3.490;2023-03-13T07:02:31;12.70;99.90
56861;DHT22;42744;51.094;3.490;2023-03-13T07:04:57;12.70;99.90
56861;DHT22;42744;51.094;3.490;2023-03-13T07:07:23;12.60;99.90
56861;DHT22;42744;51.094;3.490;2023-03-13T07:09:49;12.60;99.90
56861;DHT22;42744;51.094;3.490;2023-03-13T07:12:15;12.60;99.90
56861;DHT22;42744;51.094;3.490;2023-03-13T07:14:42;12.60;99.90
56861;DHT22;42744;51.094;3.490;2023-03-13T07:17:08;12.60;99.90
56861;DHT22;42744;51.094;3.490;2023-03-13T07:19:34;12.60;99.90
56861;DHT22;42744;51.094;3.490;2023-03-13T07:22:00;12.60;99.90
56861;DHT22;42744;51.094;3.490;2023-03-13T07:24:26;12.60;99.90
56861;DHT22;42744;51.094;3.490;2023-03-13T07:26:52;12.60;99.90
56861;DHT22;42744;51.094;3.490;2023-03-13T07:29:18;12.60;99.90
56861;DHT22;42744;51.094;3.490;2023-03-13T07:31:44;12.70;99.90
56861;DHT22;42744;51.094;3.490;2023-03-13T07:34:10;12.70;99.90
56861;DHT22;42744;51.094;3.490;2023-03-13T07:36:36;12.70;99.90
56861;DHT22;42744;51.094;3.490;2023-03-13T07:39:02;12.70;99.90
56861;DHT22;42744;51.094;3.490;2023-03-13T07:41:28;12.80;99.90
56861;DHT22;42744;51.094;3.490;2023-03-13T07:43:55;12.90;99.90
56861;DHT22;42744;51.094;3.490;2023-03-13T07:46:21;12.90;99.90
56861;DHT22;42744;51.094;3.490;2023-03-13T07:48:47;13.00;99.90
56861;DHT22;42744;51.094;3.490;2023-03-13T07:51:19;13.10;99.90
56861;DHT22;42744;51.094;3.490;2023-03-13T07:53:45;13.20;99.90
56861;DHT22;42744;51.094;3.490;2023-03-13T07:56:17;13.20;99.90
56861;DHT22;42744;51.094;3.490;2023-03-13T07:58:44;13.30;99.90
56861;DHT22;42744;51.094;3.490;2023-03-13T08:01:21;13.40;99.90
56861;DHT22;42744;51.094;3.490;2023-03-13T08:03:48;13.50;99.90
56861;DHT22;42744;51.094;3.490;2023-03-13T08:06:19;13.60;99.90
56861;DHT22;42744;51.094;3.490;2023-03-13T08:08:48;13.60;99.90
56861;DHT22;42744;51.094;3.490;2023-03-13T08:11:20;13.70;99.90
56861;DHT22;42744;51.094;3.490;2023-03-13T08:13:46;13.70;99.90
56861;DHT22;42744;51.094;3.490;2023-03-13T08:16:17;13.70;99.90
56861;DHT22;42744;51.094;3.490;2023-03-13T08:18:48;13.80;99.90
56861;DHT22;42744;51.094;3.490;2023-03-13T08:21:17;13.90;99.90
56861;DHT22;42744;51.094;3.490;2023-03-13T08:23:44;13.90;99.90
56861;DHT22;42744;51.094;3.490;2023-03-13T08:26:14;13.90;99.90
56861;DHT22;42744;51.094;3.490;2023-03-13T08:28:41;13.90;99.90
56861;DHT22;42744;51.094;3.490;2023-03-13T08:31:22;14.00;99.90
56861;DHT22;42744;51.094;3.490;2023-03-13T08:33:49;14.00;99.90
56861;DHT22;42744;51.094;3.490;2023-03-13T08:36:29;14.00;99.90
56861;DHT22;42744;51.094;3.490;2023-03-13T08:38:58;14.00;99.90
56861;DHT22;42744;51.094;3.490;2023-03-13T08:41:27;13.90;99.90
56861;DHT22;42744;51.094;3.490;2023-03-13T08:43:54;13.90;99.90
56861;DHT22;42744;51.094;3.490;2023-03-13T08:46:22;13.90;99.90
56861;DHT22;42744;51.094;3.490;2023-03-13T08:48:52;14.00;99.90
56861;DHT22;42744;51.094;3.490;2023-03-13T08:51:20;14.00;99.90
56861;DHT22;42744;51.094;3.490;2023-03-13T08:53:47;14.10;99.90
56861;DHT22;42744;51.094;3.490;2023-03-13T08:56:19;14.20;99.90
56861;DHT22;42744;51.094;3.490;2023-03-13T08:58:49;14.40;99.90
56861;DHT22;42744;51.094;3.490;2023-03-13T09:01:15;14.40;99.90
56861;DHT22;42744;51.094;3.490;2023-03-13T09:03:42;14.50;99.90
56861;DHT22;42744;51.094;3.490;2023-03-13T09:06:09;14.70;99.90
56861;DHT22;42744;51.094;3.490;2023-03-13T09:08:36;14.70;99.90
56861;DHT22;42744;51.094;3.490;2023-03-13T09:11:14;14.80;99.90
56861;DHT22;42744;51.094;3.490;2023-03-13T09:13:43;14.90;99.90
56861;DHT22;42744;51.094;3.490;2023-03-13T09:16:11;15.00;99.90
56861;DHT22;42744;51.094;3.490;2023-03-13T09:18:38;15.10;99.90
56861;DHT22;42744;51.094;3.490;2023-03-13T09:21:07;15.10;99.90
56861;DHT22;42744;51.094;3.490;2023-03-13T09:23:33;15.20;99.90
56861;DHT22;42744;51.094;3.490;2023-03-13T09:26:00;15.40;99.90
56861;DHT22;42744;51.094;3.490;2023-03-13T09:28:26;15.50;99.90
56861;DHT22;42744;51.094;3.490;2023-03-13T09:30:53;15.50;99.90
56861;DHT22;42744;51.094;3.490;2023-03-13T09:33:20;15.50;99.90
56861;DHT22;42744;51.094;3.490;2023-03-13T09:35:48;15.50;99.90
56861;DHT22;42744;51.094;3.490;2023-03-13T09:38:19;15.40;99.90
56861;DHT22;42744;51.094;3.490;2023-03-13T09:40:50;15.50;99.90
56861;DHT22;42744;51.094;3.490;2023-03-13T09:43:24;15.60;99.90
56861;DHT22;42744;51.094;3.490;2023-03-13T09:45:53;15.70;99.90
56861;DHT22;42744;51.094;3.490;2023-03-13T09:51:01;15.90;99.90
56861;DHT22;42744;51.094;3.490;2023-03-13T09:53:44;16.00;99.90
56861;DHT22;42744;51.094;3.490;2023-03-13T09:56:36;15.80;99.90
56861;DHT22;42744;51.094;3.490;2023-03-13T10:01:40;15.90;99.90
56861;DHT22;42744;51.094;3.490;2023-03-13T10:06:59;16.40;99.90
56861;DHT22;42744;51.094;3.490;2023-03-13T10:09:32;16.30;99.90
56861;DHT22;42744;51.094;3.490;2023-03-13T10:12:05;16.20;99.90
56861;DHT22;42744;51.094;3.490;2023-03-13T10:14:51;16.10;99.90
56861;DHT22;42744;51.094;3.490;2023-03-13T10:17:38;16.00;99.90
56861;DHT22;42744;51.094;3.490;2023-03-13T10:22:41;16.60;99.90
56861;DHT22;42744;51.094;3.490;2023-03-13T10:25:26;16.70;99.90
56861;DHT22;42744;51.094;3.490;2023-03-13T10:27:53;17.00;99.90
56861;DHT22;42744;51.094;3.490;2023-03-13T10:30:34;17.20;99.90
56861;DHT22;42744;51.094;3.490;2023-03-13T10:35:35;17.10;99.90
56861;DHT22;42744;51.094;3.490;2023-03-13T10:38:04;17.30;99.90
56861;DHT22;42744;51.094;3.490;2023-03-13T10:40:31;17.50;99.90
56861;DHT22;42744;51.094;3.490;2023-03-13T10:43:06;17.50;99.90
56861;DHT22;42744;51.094;3.490;2023-03-13T10:45:37;17.50;99.90
56861;DHT22;42744;51.094;3.490;2023-03-13T10:48:12;17.70;99.90
56861;DHT22;42744;51.094;3.490;2023-03-13T10:50:42;18.10;99.90
56861;DHT22;42744;51.094;3.490;2023-03-13T10:56:14;18.60;99.90
56861;DHT22;42744;51.094;3.490;2023-03-13T10:58:48;18.80;99.90
56861;DHT22;42744;51.094;3.490;2023-03-13T11:01:20;19.10;99.90
56861;DHT22;42744;51.094;3.490;2023-03-13T11:03:49;18.90;99.90
56861;DHT22;42744;51.094;3.490;2023-03-13T11:06:33;18.50;99.90
56861;DHT22;42744;51.094;3.490;2023-03-13T11:09:04;18.30;99.90
56861;DHT22;42744;51.094;3.490;2023-03-13T11:11:30;18.00;99.90
56861;DHT22;42744;51.094;3.490;2023-03-13T11:14:12;18.00;99.90
56861;DHT22;42744;51.094;3.490;2023-03-13T11:16:49;17.90;99.90
56861;DHT22;42744;51.094;3.490;2023-03-13T11:19:28;17.80;99.90
56861;DHT22;42744;51.094;3.490;2023-03-13T11:22:11;17.90;99.90
56861;DHT22;42744;51.094;3.490;2023-03-13T11:27:34;17.90;99.90
56861;DHT22;42744;51.094;3.490;2023-03-13T11:33:03;18.10;99.90
56861;DHT22;42744;51.094;3.490;2023-03-13T11:38:27;18.20;99.90
56861;DHT22;42744;51.094;3.490;2023-03-13T11:44:19;17.60;99.90
56861;DHT22;42744;51.094;3.490;2023-03-13T11:53:21;17.40;99.90
56861;DHT22;42744;51.094;3.490;2023-03-13T11:56:04;17.30;99.90
56861;DHT22;42744;51.094;3.490;2023-03-13T11:59:02;17.50;99.90
56861;DHT22;42744;51.094;3.490;2023-03-13T12:01:45;17.90;99.90
56861;DHT22;42744;51.094;3.490;2023-03-13T12:04:36;18.30;99.90
56861;DHT22;42744;51.094;3.490;2023-03-13T12:09:46;18.00;99.90
56861;DHT22;42744;51.094;3.490;2023-03-13T12:12:32;17.60;99.90
56861;DHT22;42744;51.094;3.490;2023-03-13T12:17:53;17.60;99.90
56861;DHT22;42744;51.094;3.490;2023-03-13T12:26:19;18.30;99.90
56861;DHT22;42744;51.094;3.490;2023-03-13T12:34:12;18.70;99.90
56861;DHT22;42744;51.094;3.490;2023-03-13T12:39:41;18.90;99.50
56861;DHT22;42744;51.094;3.490;2023-03-13T12:44:58;18.90;99.90
56861;DHT22;42744;51.094;3.490;2023-03-13T12:47:32;18.50;99.90
56861;DHT22;42744;51.094;3.490;2023-03-13T12:50:19;18.10;99.90
56861;DHT22;42744;51.094;3.490;2023-03-13T12:58:10;18.00;99.90
56861;DHT22;42744;51.094;3.490;2023-03-13T13:00:40;18.40;99.90
56861;DHT22;42744;51.094;3.490;2023-03-13T13:06:06;18.70;99.90
56861;DHT22;42744;51.094;3.490;2023-03-13T13:08:37;18.10;99.90
56861;DHT22;42744;51.094;3.490;2023-03-13T13:16:47;17.40;99.90
56861;DHT22;42744;51.094;3.490;2023-03-13T13:27:45;17.80;99.90
56861;DHT22;42744;51.094;3.490;2023-03-13T13:32:52;17.80;99.90
56861;DHT22;42744;51.094;3.490;2023-03-13T13:35:34;17.60;99.90
56861;DHT22;42744;51.094;3.490;2023-03-13T13:41:41;17.80;99.90
56861;DHT22;42744;51.094;3.490;2023-03-13T13:44:21;18.00;99.90
56861;DHT22;42744;51.094;3.490;2023-03-13T13:46:48;18.10;99.90
56861;DHT22;42744;51.094;3.490;2023-03-13T13:49:19;18.30;99.90
56861;DHT22;42744;51.094;3.490;2023-03-13T13:57:22;18.10;99.90
56861;DHT22;42744;51.094;3.490;2023-03-13T14:00:23;18.10;99.90
56861;DHT22;42744;51.094;3.490;2023-03-13T14:02:53;18.10;99.90
56861;DHT22;42744;51.094;3.490;2023-03-13T14:10:39;18.00;99.90
56861;DHT22;42744;51.094;3.490;2023-03-13T14:13:17;17.90;99.90
56861;DHT22;42744;51.094;3.490;2023-03-13T14:15:46;17.70;99.90
56861;DHT22;42744;51.094;3.490;2023-03-13T14:18:26;17.80;99.90
56861;DHT22;42744;51.094;3.490;2023-03-13T14:21:04;17.90;99.90
56861;DHT22;42744;51.094;3.490;2023-03-13T14:23:42;18.10;99.90
56861;DHT22;42744;51.094;3.490;2023-03-13T14:28:51;18.30;99.90
56861;DHT22;42744;51.094;3.490;2023-03-13T14:31:26;18.30;99.90
56861;DHT22;42744;51.094;3.490;2023-03-13T14:33:53;18.30;99.90
56861;DHT22;42744;51.094;3.490;2023-03-13T14:36:20;18.40;99.90
56861;DHT22;42744;51.094;3.490;2023-03-13T14:38:54;18.40;99.90
56861;DHT22;42744;51.094;3.490;2023-03-13T14:43:54;18.30;99.90
56861;DHT22;42744;51.094;3.490;2023-03-13T14:46:34;18.20;99.90
56861;DHT22;42744;51.094;3.490;2023-03-13T14:49:27;18.00;99.90
56861;DHT22;42744;51.094;3.490;2023-03-13T14:52:15;17.80;99.90
56861;DHT22;42744;51.094;3.490;2023-03-13T14:58:03;17.70;99.90
56861;DHT22;42744;51.094;3.490;2023-03-13T15:00:40;17.60;99.90
56861;DHT22;42744;51.094;3.490;2023-03-13T15:03:22;17.60;99.90
56861;DHT22;42744;51.094;3.490;2023-03-13T15:08:39;17.60;99.90
56861;DHT22;42744;51.094;3.490;2023-03-13T15:13:44;17.60;99.90
56861;DHT22;42744;51.094;3.490;2023-03-13T15:16:21;17.50;99.90
56861;DHT22;42744;51.094;3.490;2023-03-13T15:18:48;17.60;99.90
56861;DHT22;42744;51.094;3.490;2023-03-13T15:24:01;17.50;99.90
56861;DHT22;42744;51.094;3.490;2023-03-13T15:26:29;17.40;99.90
56861;DHT22;42744;51.094;3.490;2023-03-13T15:28:55;17.20;99.90
56861;DHT22;42744;51.094;3.490;2023-03-13T15:31:25;17.20;99.90
56861;DHT22;42744;51.094;3.490;2023-03-13T15:33:56;17.10;99.90
56861;DHT22;42744;51.094;3.490;2023-03-13T15:36:23;17.10;99.90
56861;DHT22;42744;51.094;3.490;2023-03-13T15:38:49;17.10;99.90
56861;DHT22;42744;51.094;3.490;2023-03-13T15:41:17;17.00;99.90
56861;DHT22;42744;51.094;3.490;2023-03-13T15:43:43;16.90;99.90
56861;DHT22;42744;51.094;3.490;2023-03-13T15:46:12;16.80;99.90
56861;DHT22;42744;51.094;3.490;2023-03-13T15:48:39;16.70;99.90
56861;DHT22;42744;51.094;3.490;2023-03-13T15:51:11;16.60;99.90
56861;DHT22;42744;51.094;3.490;2023-03-13T15:53:39;16.60;99.90
56861;DHT22;42744;51.094;3.490;2023-03-13T15:56:13;16.60;99.90
56861;DHT22;42744;51.094;3.490;2023-03-13T15:58:39;16.50;99.90
56861;DHT22;42744;51.094;3.490;2023-03-13T16:01:05;16.40;99.90
56861;DHT22;42744;51.094;3.490;2023-03-13T16:03:32;16.40;99.90
56861;DHT22;42744;51.094;3.490;2023-03-13T16:05:58;16.30;99.90
56861;DHT22;42744;51.094;3.490;2023-03-13T16:08:26;16.30;99.90
56861;DHT22;42744;51.094;3.490;2023-03-13T16:10:53;16.30;99.90
56861;DHT22;42744;51.094;3.490;2023-03-13T16:13:20;16.20;99.90
56861;DHT22;42744;51.094;3.490;2023-03-13T16:15:46;16.20;99.90
56861;DHT22;42744;51.094;3.490;2023-03-13T16:18:18;16.10;99.90
56861;DHT22;42744;51.094;3.490;2023-03-13T16:20:48;16.00;99.90
56861;DHT22;42744;51.094;3.490;2023-03-13T16:23:15;16.00;99.90
56861;DHT22;42744;51.094;3.490;2023-03-13T16:25:45;15.90;99.90
56861;DHT22;42744;51.094;3.490;2023-03-13T16:28:12;15.90;99.90
56861;DHT22;42744;51.094;3.490;2023-03-13T16:30:39;15.80;99.90
56861;DHT22;42744;51.094;3.490;2023-03-13T16:33:06;15.80;99.90
56861;DHT22;42744;51.094;3.490;2023-03-13T16:35:32;15.80;99.90
56861;DHT22;42744;51.094;3.490;2023-03-13T16:37:59;15.80;99.90
56861;DHT22;42744;51.094;3.490;2023-03-13T16:40:29;15.70;99.90
56861;DHT22;42744;51.094;3.490;2023-03-13T16:42:55;15.60;99.90
56861;DHT22;42744;51.094;3.490;2023-03-13T16:45:22;15.60;99.90
56861;DHT22;42744;51.094;3.490;2023-03-13T16:47:48;15.50;99.90
56861;DHT22;42744;51.094;3.490;2023-03-13T16:52:47;15.30;99.90
56861;DHT22;42744;51.094;3.490;2023-03-13T16:55:13;15.20;99.90
56861;DHT22;42744;51.094;3.490;2023-03-13T16:57:39;15.10;99.90
56861;DHT22;42744;51.094;3.490;2023-03-13T17:00:31;15.00;99.90
56861;DHT22;42744;51.094;3.490;2023-03-13T17:02:57;14.90;99.90
56861;DHT22;42744;51.094;3.490;2023-03-13T17:05:25;14.80;99.90
56861;DHT22;42744;51.094;3.490;2023-03-13T17:07:51;14.80;99.90
56861;DHT22;42744;51.094;3.490;2023-03-13T17:10:23;14.80;99.90
56861;DHT22;42744;51.094;3.490;2023-03-13T17:12:50;14.80;99.90
56861;DHT22;42744;51.094;3.490;2023-03-13T17:15:17;14.80;99.90
56861;DHT22;42744;51.094;3.490;2023-03-13T17:17:44;14.70;99.90
56861;DHT22;42744;51.094;3.490;2023-03-13T17:20:25;14.70;99.90
56861;DHT22;42744;51.094;3.490;2023-03-13T17:22:51;14.60;99.90
56861;DHT22;42744;51.094;3.490;2023-03-13T17:25:18;14.50;99.90
56861;DHT22;42744;51.094;3.490;2023-03-13T17:27:44;14.40;99.90
56861;DHT22;42744;51.094;3.490;2023-03-13T17:30:24;14.30;99.90
56861;DHT22;42744;51.094;3.490;2023-03-13T17:32:51;14.20;99.90
56861;DHT22;42744;51.094;3.490;2023-03-13T17:35:18;14.10;99.90
56861;DHT22;42744;51.094;3.490;2023-03-13T17:37:45;14.00;99.90
56861;DHT22;42744;51.094;3.490;2023-03-13T17:40:24;14.00;99.90
56861;DHT22;42744;51.094;3.490;2023-03-13T17:42:50;13.90;99.90
56861;DHT22;42744;51.094;3.490;2023-03-13T17:45:17;13.80;99.90
56861;DHT22;42744;51.094;3.490;2023-03-13T17:47:43;13.70;99.90
56861;DHT22;42744;51.094;3.490;2023-03-13T17:50:18;13.70;99.90
56861;DHT22;42744;51.094;3.490;2023-03-13T17:52:46;13.50;99.90
56861;DHT22;42744;51.094;3.490;2023-03-13T17:55:12;13.40;99.90